createdAt,value
2024-02-09T00:00:42.663Z,72.30
2024-02-09T00:01:42.052Z,72.60
2024-02-09T00:02:42.215Z,72.60
2024-02-09T00:03:41.956Z,72.80
2024-02-09T00:04:42.013Z,73.00
2024-02-09T00:05:42.548Z,72.89
2024-02-09T00:06:41.977Z,72.89
2024-02-09T00:07:42.108Z,73.10
2024-02-09T00:08:42.186Z,73.29
2024-02-09T00:09:41.945Z,73.33
2024-02-09T00:10:42.075Z,73.29
2024-02-09T00:11:42.680Z,73.10
2024-02-09T00:12:41.870Z,73.00
2024-02-09T00:13:41.891Z,72.89
2024-02-09T00:14:41.880Z,72.80
2024-02-09T00:15:41.945Z,72.80
2024-02-09T00:16:42.018Z,72.70
2024-02-09T00:17:42.128Z,72.50
2024-02-09T00:18:42.172Z,72.20
2024-02-09T00:19:41.946Z,72.20
2024-02-09T00:20:41.815Z,72.20
2024-02-09T00:21:41.954Z,72.00
2024-02-09T00:22:41.994Z,72.00
2024-02-09T00:23:41.952Z,71.91
2024-02-09T00:24:41.787Z,72.00
2024-02-09T00:25:41.819Z,72.00
2024-02-09T00:26:41.813Z,71.91
2024-02-09T00:27:41.767Z,71.81
2024-02-09T00:28:41.803Z,71.81
2024-02-09T00:29:41.894Z,71.81
2024-02-09T00:30:41.676Z,71.94
2024-02-09T00:31:41.879Z,71.74
2024-02-09T00:32:41.805Z,71.74
2024-02-09T00:33:41.734Z,71.74
2024-02-09T00:34:41.947Z,71.84
2024-02-09T00:35:41.754Z,71.94
2024-02-09T00:36:41.787Z,72.04
2024-02-09T00:37:41.728Z,71.94
2024-02-09T00:38:41.681Z,71.64
2024-02-09T00:39:41.673Z,71.31
2024-02-09T00:40:43.069Z,71.21
2024-02-09T00:41:41.675Z,71.01
2024-02-09T00:42:41.554Z,71.34
2024-02-09T00:43:41.734Z,71.34
2024-02-09T00:44:41.617Z,71.54
2024-02-09T00:45:41.511Z,71.64
2024-02-09T00:46:41.748Z,71.74
2024-02-09T00:47:41.592Z,71.74
2024-02-09T00:48:41.531Z,71.64
2024-02-09T00:49:42.480Z,71.74
2024-02-09T00:50:41.457Z,71.84
2024-02-09T00:51:41.623Z,71.84
2024-02-09T00:52:41.714Z,71.84
2024-02-09T00:53:41.463Z,71.94
2024-02-09T00:54:41.382Z,72.14
2024-02-09T00:55:41.514Z,72.24
2024-02-09T00:56:41.451Z,72.24
2024-02-09T00:57:41.497Z,72.33
2024-02-09T00:58:41.538Z,72.44
2024-02-09T00:59:41.417Z,72.44
2024-02-09T01:00:41.639Z,72.33
2024-02-09T01:01:50.398Z,72.24
2024-02-09T01:02:41.366Z,72.33
2024-02-09T01:03:41.317Z,72.44
2024-02-09T01:04:41.778Z,72.53
2024-02-09T01:05:41.642Z,72.63
2024-02-09T01:06:41.378Z,72.86
2024-02-09T01:07:41.393Z,73.07
2024-02-09T01:08:41.299Z,73.07
2024-02-09T01:09:41.359Z,73.07
2024-02-09T01:10:41.355Z,73.16
2024-02-09T01:11:41.368Z,73.07
2024-02-09T01:12:41.273Z,72.97
2024-02-09T01:13:41.241Z,73.07
2024-02-09T01:14:41.187Z,72.53
2024-02-09T01:15:41.211Z,72.14
2024-02-09T01:16:41.310Z,72.57
2024-02-09T01:17:41.525Z,73.07
2024-02-09T01:18:41.187Z,73.27
2024-02-09T01:19:41.291Z,73.36
2024-02-09T01:20:41.338Z,73.36
2024-02-09T01:21:41.133Z,73.60
2024-02-09T01:22:41.185Z,73.80
2024-02-09T01:23:41.243Z,73.80
2024-02-09T01:24:41.069Z,73.80
2024-02-09T01:25:41.222Z,73.56
2024-02-09T01:26:41.441Z,73.46
2024-02-09T01:27:41.132Z,73.60
2024-02-09T01:28:41.147Z,73.56
2024-02-09T01:29:41.196Z,73.46
2024-02-09T01:30:41.011Z,73.46
2024-02-09T01:31:41.112Z,73.46
2024-02-09T01:32:41.179Z,73.66
2024-02-09T01:33:41.058Z,73.80
2024-02-09T01:34:41.165Z,73.80
2024-02-09T01:35:41.545Z,73.76
2024-02-09T01:36:41.134Z,73.90
2024-02-09T01:37:40.986Z,73.80
2024-02-09T01:38:40.990Z,73.80
2024-02-09T01:39:40.959Z,73.56
2024-02-09T01:40:41.008Z,73.46
2024-02-09T01:41:41.016Z,73.36
2024-02-09T01:42:40.885Z,73.46
2024-02-09T01:43:40.983Z,73.36
2024-02-09T01:44:40.907Z,73.36
2024-02-09T01:45:41.016Z,73.36
2024-02-09T01:46:41.020Z,73.46
2024-02-09T01:47:40.980Z,73.36
2024-02-09T01:48:40.918Z,73.27
2024-02-09T01:49:40.926Z,73.20
2024-02-09T01:50:40.908Z,73.40
2024-02-09T01:51:40.991Z,73.50
2024-02-09T01:52:40.892Z,73.50
2024-02-09T01:53:40.892Z,73.60
2024-02-09T01:54:40.868Z,73.69
2024-02-09T01:55:40.757Z,73.60
2024-02-09T01:56:40.919Z,73.50
2024-02-09T01:57:40.887Z,73.50
2024-02-09T01:58:40.924Z,73.50
2024-02-09T01:59:40.691Z,73.30
2024-02-09T02:00:40.740Z,73.30
2024-02-09T02:01:40.774Z,73.20
2024-02-09T02:02:40.798Z,73.10
2024-02-09T02:03:40.749Z,73.30
2024-02-09T02:04:40.871Z,73.30
2024-02-09T02:05:40.685Z,73.20
2024-02-09T02:06:40.721Z,73.20
2024-02-09T02:07:40.731Z,73.20
2024-02-09T02:08:40.862Z,73.10
2024-02-09T02:09:40.665Z,73.10
2024-02-09T02:10:40.788Z,73.00
2024-02-09T02:11:40.572Z,72.90
2024-02-09T02:12:40.577Z,73.30
2024-02-09T02:13:40.629Z,73.43
2024-02-09T02:14:41.030Z,73.43
2024-02-09T02:15:40.798Z,73.43
2024-02-09T02:16:40.593Z,73.43
2024-02-09T02:17:40.558Z,73.43
2024-02-09T02:18:40.608Z,73.54
2024-02-09T02:19:40.588Z,73.43
2024-02-09T02:20:40.565Z,73.43
2024-02-09T02:21:41.234Z,73.43
2024-02-09T02:22:40.567Z,73.33
2024-02-09T02:23:40.477Z,73.24
2024-02-09T02:24:40.764Z,73.03
2024-02-09T02:25:40.599Z,73.03
2024-02-09T02:26:40.464Z,73.24
2024-02-09T02:27:41.391Z,73.33
2024-02-09T02:28:40.560Z,73.43
2024-02-09T02:29:40.414Z,73.54
2024-02-09T02:30:40.419Z,73.63
2024-02-09T02:31:40.533Z,73.54
2024-02-09T02:32:40.522Z,73.24
2024-02-09T02:33:40.688Z,73.24
2024-02-09T02:34:40.352Z,73.24
2024-02-09T02:35:40.625Z,73.43
2024-02-09T02:36:40.359Z,73.33
2024-02-09T02:37:40.432Z,73.43
2024-02-09T02:38:40.334Z,73.43
2024-02-09T02:39:40.342Z,72.94
2024-02-09T02:40:40.316Z,73.03
2024-02-09T02:41:40.458Z,73.24
2024-02-09T02:42:40.298Z,73.27
2024-02-09T02:43:40.280Z,73.37
2024-02-09T02:44:40.308Z,73.27
2024-02-09T02:45:40.279Z,73.47
2024-02-09T02:46:40.353Z,73.57
2024-02-09T02:47:40.346Z,73.47
2024-02-09T02:48:40.234Z,73.47
2024-02-09T02:49:40.295Z,73.47
2024-02-09T02:50:40.554Z,73.47
2024-02-09T02:51:40.299Z,73.37
2024-02-09T02:52:40.439Z,73.27
2024-02-09T02:53:40.175Z,73.37
2024-02-09T02:54:40.321Z,73.24
2024-02-09T02:55:40.145Z,73.03
2024-02-09T02:56:40.403Z,73.14
2024-02-09T02:57:40.126Z,72.87
2024-02-09T02:58:40.184Z,72.74
2024-02-09T02:59:40.083Z,72.84
2024-02-09T03:00:40.358Z,72.84
2024-02-09T03:01:40.190Z,72.84
2024-02-09T03:02:40.271Z,72.84
2024-02-09T03:03:40.077Z,72.77
2024-02-09T03:04:40.198Z,72.67
2024-02-09T03:05:40.345Z,72.67
2024-02-09T03:06:54.709Z,72.97
2024-02-09T03:09:40.151Z,72.97
2024-02-09T03:10:40.263Z,73.07
2024-02-09T03:11:40.114Z,72.87
2024-02-09T03:12:40.079Z,72.97
2024-02-09T03:13:39.889Z,72.97
2024-02-09T03:14:40.008Z,72.87
2024-02-09T03:15:40.054Z,72.97
2024-02-09T03:16:39.997Z,72.67
2024-02-09T03:17:40.115Z,72.91
2024-02-09T03:18:39.885Z,72.91
2024-02-09T03:19:40.021Z,73.00
2024-02-09T03:20:40.093Z,73.11
2024-02-09T03:21:39.982Z,73.11
2024-02-09T03:22:39.893Z,73.00
2024-02-09T03:23:39.899Z,73.11
2024-02-09T03:24:39.804Z,73.21
2024-02-09T03:25:39.962Z,73.21
2024-02-09T03:26:40.020Z,73.21
2024-02-09T03:27:39.826Z,73.30
2024-02-09T03:28:39.901Z,73.30
2024-02-09T03:29:39.852Z,73.11
2024-02-09T03:30:39.842Z,73.11
2024-02-09T03:31:40.045Z,73.00
2024-02-09T03:32:39.810Z,72.91
2024-02-09T03:33:39.876Z,72.81
2024-02-09T03:34:40.025Z,73.00
2024-02-09T03:35:39.821Z,73.41
2024-02-09T03:36:39.717Z,73.41
2024-02-09T03:37:39.768Z,73.30
2024-02-09T03:38:39.805Z,73.50
2024-02-09T03:39:39.814Z,73.50
2024-02-09T03:40:40.894Z,73.60
2024-02-09T03:41:39.806Z,73.70
2024-02-09T03:42:39.725Z,73.50
2024-02-09T03:43:39.657Z,73.41
2024-02-09T03:44:40.141Z,73.30
2024-02-09T03:45:39.752Z,73.21
2024-02-09T03:46:39.698Z,73.21
2024-02-09T03:47:39.620Z,73.30
2024-02-09T03:48:39.590Z,73.41
2024-02-09T03:49:39.632Z,73.30
2024-02-09T03:50:40.488Z,73.41
2024-02-09T03:51:39.591Z,73.41
2024-02-09T03:52:39.714Z,73.41
2024-02-09T03:53:39.514Z,73.74
2024-02-09T03:54:39.492Z,73.80
2024-02-09T03:55:39.795Z,73.90
2024-02-09T03:56:39.490Z,73.70
2024-02-09T03:57:39.532Z,73.50
2024-02-09T03:58:39.616Z,73.70
2024-02-09T03:59:39.442Z,73.60
2024-02-09T04:00:39.452Z,73.50
2024-02-09T04:01:39.498Z,73.50
2024-02-09T04:02:39.435Z,73.60
2024-02-09T04:03:39.690Z,73.60
2024-02-09T04:04:39.711Z,73.60
2024-02-09T04:05:39.574Z,73.60
2024-02-09T04:06:39.449Z,73.50
2024-02-09T04:07:39.422Z,73.70
2024-02-09T04:08:39.403Z,73.90
2024-02-09T04:09:52.848Z,73.90
2024-02-09T04:10:43.865Z,73.90
2024-02-09T04:11:39.314Z,74.10
2024-02-09T04:12:39.314Z,74.13
2024-02-09T04:13:40.191Z,74.04
2024-02-09T04:14:39.338Z,74.13
2024-02-09T04:15:39.328Z,74.24
2024-02-09T04:16:39.308Z,74.24
2024-02-09T04:17:39.283Z,74.24
2024-02-09T04:18:39.281Z,74.04
2024-02-09T04:19:39.305Z,74.13
2024-02-09T04:20:39.690Z,74.04
2024-02-09T04:21:39.262Z,73.94
2024-02-09T04:22:39.310Z,74.04
2024-02-09T04:23:39.185Z,74.13
2024-02-09T04:24:39.210Z,74.04
2024-02-09T04:25:39.233Z,74.04
2024-02-09T04:26:39.192Z,73.94
2024-02-09T04:27:39.205Z,74.04
2024-02-09T04:28:39.144Z,74.13
2024-02-09T04:29:39.224Z,74.04
2024-02-09T04:30:39.136Z,74.24
2024-02-09T04:31:39.156Z,74.33
2024-02-09T04:32:39.140Z,74.24
2024-02-09T04:33:39.197Z,74.54
2024-02-09T04:34:39.186Z,74.63
2024-02-09T04:35:39.040Z,74.54
2024-02-09T04:36:39.055Z,74.43
2024-02-09T04:37:39.181Z,74.33
2024-02-09T04:38:39.085Z,74.43
2024-02-09T04:39:39.998Z,74.54
2024-02-09T04:40:39.050Z,74.63
2024-02-09T04:41:38.995Z,74.73
2024-02-09T04:42:38.997Z,74.87
2024-02-09T04:43:39.073Z,74.84
2024-02-09T04:44:39.011Z,74.84
2024-02-09T04:45:39.228Z,74.73
2024-02-09T04:46:39.013Z,74.73
2024-02-09T04:47:39.004Z,74.73
2024-02-09T04:48:39.139Z,74.84
2024-02-09T04:49:38.956Z,74.93
2024-02-09T04:50:38.975Z,74.93
2024-02-09T04:51:38.981Z,74.84
2024-02-09T04:52:39.108Z,74.93
2024-02-09T04:53:38.999Z,75.03
2024-02-09T04:54:38.878Z,75.13
2024-02-09T04:55:38.991Z,75.13
2024-02-09T04:56:38.918Z,75.23
2024-02-09T04:57:38.823Z,75.33
2024-02-09T04:58:39.853Z,75.33
2024-02-09T04:59:39.024Z,75.33
2024-02-09T05:00:38.865Z,75.23
2024-02-09T05:01:38.878Z,75.13
2024-02-09T05:02:38.855Z,75.13
2024-02-09T05:03:38.823Z,75.23
2024-02-09T05:04:38.828Z,75.23
2024-02-09T05:05:38.873Z,75.13
2024-02-09T05:06:38.790Z,75.23
2024-02-09T05:07:38.852Z,75.23
2024-02-09T05:08:38.779Z,75.23
2024-02-09T05:09:38.700Z,75.33
2024-02-09T05:10:38.741Z,75.43
2024-02-09T05:11:38.693Z,75.57
2024-02-09T05:12:38.680Z,75.67
2024-02-09T05:13:38.933Z,75.87
2024-02-09T05:14:38.705Z,75.87
2024-02-09T05:15:38.613Z,75.87
2024-02-09T05:16:38.791Z,75.76
2024-02-09T05:17:38.759Z,75.96
2024-02-09T05:18:38.701Z,75.96
2024-02-09T05:19:38.621Z,75.96
2024-02-09T05:20:39.050Z,75.96
2024-02-09T05:21:38.569Z,75.96
2024-02-09T05:22:38.627Z,75.87
2024-02-09T05:23:38.588Z,75.76
2024-02-09T05:24:38.562Z,75.67
2024-02-09T05:25:38.704Z,75.67
2024-02-09T05:26:38.586Z,75.67
2024-02-09T05:27:38.530Z,75.76
2024-02-09T05:28:38.526Z,75.67
2024-02-09T05:29:38.524Z,75.76
2024-02-09T05:30:38.529Z,75.67
2024-02-09T05:31:38.684Z,75.67
2024-02-09T05:32:38.611Z,75.57
2024-02-09T05:33:38.514Z,75.57
2024-02-09T05:34:38.584Z,75.46
2024-02-09T05:35:38.434Z,75.67
2024-02-09T05:36:38.473Z,75.87
2024-02-09T05:37:38.555Z,76.06
2024-02-09T05:38:38.353Z,76.06
2024-02-09T05:39:38.351Z,76.06
2024-02-09T05:40:38.424Z,75.96
2024-02-09T05:41:38.363Z,76.06
2024-02-09T05:42:38.607Z,75.96
2024-02-09T05:43:38.434Z,76.06
2024-02-09T05:44:38.307Z,76.06
2024-02-09T05:45:38.504Z,76.06
2024-02-09T05:46:38.463Z,76.17
2024-02-09T05:47:38.330Z,76.36
2024-02-09T05:48:38.330Z,76.26
2024-02-09T05:49:38.297Z,76.17
2024-02-09T05:50:40.754Z,76.26
2024-02-09T05:51:38.236Z,76.30
2024-02-09T05:52:38.565Z,76.40
2024-02-09T05:53:38.221Z,76.40
2024-02-09T05:54:38.250Z,76.50
2024-02-09T05:55:38.281Z,76.50
2024-02-09T05:56:38.285Z,76.50
2024-02-09T05:57:38.393Z,76.60
2024-02-09T05:58:38.430Z,76.60
2024-02-09T05:59:38.162Z,76.79
2024-02-09T06:00:38.353Z,76.70
2024-02-09T06:01:38.245Z,76.70
2024-02-09T06:02:38.436Z,76.70
2024-02-09T06:03:38.203Z,76.60
2024-02-09T06:04:38.257Z,76.90
2024-02-09T06:05:38.099Z,77.00
2024-02-09T06:06:38.247Z,77.09
2024-02-09T06:07:38.148Z,77.13
2024-02-09T06:08:38.009Z,77.23
2024-02-09T06:09:38.731Z,77.33
2024-02-09T06:10:38.142Z,77.33
2024-02-09T06:11:38.080Z,77.43
2024-02-09T06:12:39.265Z,77.43
2024-02-09T06:13:38.117Z,77.43
2024-02-09T06:14:38.082Z,77.53
2024-02-09T06:15:37.992Z,77.29
2024-02-09T06:16:38.097Z,77.29
2024-02-09T06:17:37.981Z,77.20
2024-02-09T06:18:38.028Z,77.09
2024-02-09T06:19:38.223Z,77.09
2024-02-09T06:20:38.009Z,77.00
2024-02-09T06:21:38.039Z,77.00
2024-02-09T06:22:37.933Z,77.09
2024-02-09T06:23:37.949Z,77.09
2024-02-09T06:24:37.973Z,77.09
2024-02-09T06:25:37.962Z,77.00
2024-02-09T06:26:37.974Z,77.00
2024-02-09T06:27:38.035Z,76.79
2024-02-09T06:28:37.897Z,76.70
2024-02-09T06:29:37.888Z,76.70
2024-02-09T06:30:37.861Z,76.79
2024-02-09T06:31:37.904Z,76.79
2024-02-09T06:32:38.622Z,77.00
2024-02-09T06:33:37.936Z,77.20
2024-02-09T06:34:37.943Z,77.43
2024-02-09T06:35:37.882Z,77.63
2024-02-09T06:36:37.918Z,77.53
2024-02-09T06:37:37.854Z,77.59
2024-02-09T06:38:37.828Z,77.50
2024-02-09T06:39:38.745Z,77.39
2024-02-09T06:40:37.822Z,77.50
2024-02-09T06:41:37.720Z,77.39
2024-02-09T06:42:37.746Z,77.39
2024-02-09T06:43:37.791Z,77.50
2024-02-09T06:44:37.763Z,77.29
2024-02-09T06:45:37.868Z,77.39
2024-02-09T06:46:37.705Z,77.50
2024-02-09T06:47:37.708Z,77.59
2024-02-09T06:48:37.865Z,77.69
2024-02-09T06:49:37.699Z,77.69
2024-02-09T06:50:37.693Z,77.50
2024-02-09T06:51:37.608Z,77.73
2024-02-09T06:52:37.695Z,77.83
2024-02-09T06:53:37.612Z,77.83
2024-02-09T06:54:37.735Z,77.93
2024-02-09T06:55:38.586Z,77.83
2024-02-09T06:56:37.737Z,77.93
2024-02-09T06:57:37.533Z,77.93
2024-02-09T06:58:37.733Z,77.73
2024-02-09T06:59:37.533Z,77.63
2024-02-09T07:00:37.611Z,78.03
2024-02-09T07:01:37.664Z,78.13
2024-02-09T07:02:37.568Z,78.23
2024-02-09T07:03:37.524Z,78.43
2024-02-09T07:04:37.884Z,78.53
2024-02-09T07:05:37.509Z,78.53
2024-02-09T07:06:37.603Z,78.53
2024-02-09T07:07:37.448Z,78.53
2024-02-09T07:08:37.401Z,78.53
2024-02-09T07:09:37.435Z,78.43
2024-02-09T07:10:37.495Z,78.23
2024-02-09T07:11:37.442Z,78.43
2024-02-09T07:12:37.416Z,78.53
2024-02-09T07:13:37.447Z,78.53
2024-02-09T07:14:37.448Z,78.53
2024-02-09T07:15:37.354Z,78.53
2024-02-09T07:16:37.380Z,78.53
2024-02-09T07:17:37.606Z,78.53
2024-02-09T07:18:37.355Z,78.43
2024-02-09T07:19:37.512Z,78.43
2024-02-09T07:20:37.406Z,78.53
2024-02-09T07:21:37.297Z,78.43
2024-02-09T07:22:37.312Z,78.53
2024-02-09T07:23:37.299Z,78.63
2024-02-09T07:24:37.320Z,78.53
2024-02-09T07:25:37.350Z,78.53
2024-02-09T07:26:37.230Z,78.63
2024-02-09T07:27:37.242Z,78.63
2024-02-09T07:28:37.323Z,78.63
2024-02-09T07:29:37.256Z,78.63
2024-02-09T07:30:37.553Z,78.73
2024-02-09T07:31:37.801Z,78.63
2024-02-09T07:32:37.422Z,78.63
2024-02-09T07:33:37.792Z,78.53
2024-02-09T07:34:38.126Z,78.53
2024-02-09T07:35:38.518Z,78.43
2024-02-09T07:36:46.917Z,78.63
2024-02-09T07:38:18.976Z,78.67
2024-02-09T07:40:35.517Z,78.63
2024-02-09T07:40:41.865Z,78.43
2024-02-09T07:41:41.722Z,78.43
2024-02-09T07:43:16.032Z,78.63
2024-02-09T07:44:06.009Z,78.43
2024-02-09T07:44:56.177Z,78.67
2024-02-09T07:45:41.648Z,78.86
2024-02-09T07:46:41.701Z,78.97
2024-02-09T07:47:41.731Z,79.16
2024-02-09T07:48:41.660Z,79.06
2024-02-09T07:49:41.693Z,79.06
2024-02-09T07:50:41.573Z,78.97
2024-02-09T07:51:41.622Z,78.86
2024-02-09T07:52:41.710Z,79.16
2024-02-09T07:53:41.604Z,79.27
2024-02-09T07:54:41.695Z,79.36
2024-02-09T07:55:41.772Z,79.46
2024-02-09T07:56:41.516Z,79.46
2024-02-09T07:57:41.532Z,79.57
2024-02-09T07:58:41.575Z,79.57
2024-02-09T07:59:41.613Z,79.57
2024-02-09T08:00:41.515Z,79.66
2024-02-09T08:01:41.702Z,79.66
2024-02-09T08:02:41.632Z,79.46
2024-02-09T08:03:41.483Z,79.27
2024-02-09T08:04:41.596Z,79.27
2024-02-09T08:05:41.453Z,79.36
2024-02-09T08:06:41.552Z,79.80
2024-02-09T08:07:41.504Z,79.90
2024-02-09T08:08:41.389Z,80.10
2024-02-09T08:09:41.377Z,80.00
2024-02-09T08:10:41.431Z,79.90
2024-02-09T08:11:41.407Z,79.80
2024-02-09T08:12:41.410Z,79.90
2024-02-09T08:13:41.426Z,80.00
2024-02-09T08:14:41.439Z,80.10
2024-02-09T08:15:41.452Z,80.00
2024-02-09T08:16:41.479Z,80.00
2024-02-09T08:17:41.387Z,80.00
2024-02-09T08:18:41.353Z,79.80
2024-02-09T08:19:41.500Z,79.90
2024-02-09T08:20:41.400Z,79.90
2024-02-09T08:21:41.305Z,80.10
2024-02-09T08:22:41.399Z,80.20
2024-02-09T08:23:41.288Z,80.30
2024-02-09T08:24:41.278Z,80.40
2024-02-09T08:25:41.282Z,80.40
2024-02-09T08:26:49.470Z,80.30
2024-02-09T08:27:41.192Z,80.40
2024-02-09T08:28:41.301Z,80.40
2024-02-09T08:29:42.713Z,80.74
2024-02-09T08:30:41.272Z,80.83
2024-02-09T08:31:41.250Z,80.64
2024-02-09T08:32:41.319Z,80.64
2024-02-09T08:33:41.291Z,80.74
2024-02-09T08:34:41.248Z,80.83
2024-02-09T08:35:41.255Z,81.04
2024-02-09T08:36:41.195Z,81.04
2024-02-09T08:37:41.357Z,81.24
2024-02-09T08:38:41.117Z,81.13
2024-02-09T08:39:41.310Z,81.13
2024-02-09T08:40:41.270Z,81.24
2024-02-09T08:41:41.223Z,81.24
2024-02-09T08:42:41.148Z,81.24
2024-02-09T08:43:41.172Z,81.24
2024-02-09T08:44:41.099Z,81.24
2024-02-09T08:45:41.060Z,81.13
2024-02-09T08:46:41.290Z,81.04
2024-02-09T08:47:41.000Z,80.80
2024-02-09T08:48:40.956Z,80.60
2024-02-09T08:49:41.248Z,80.60
2024-02-09T08:50:41.058Z,80.50
2024-02-09T08:51:41.096Z,80.60
2024-02-09T08:52:40.998Z,80.50
2024-02-09T08:53:42.074Z,80.50
2024-02-09T08:54:40.980Z,80.50
2024-02-09T08:55:42.052Z,80.60
2024-02-09T08:56:40.994Z,80.83
2024-02-09T08:57:41.026Z,80.94
2024-02-09T08:58:41.027Z,81.04
2024-02-09T08:59:40.842Z,80.90
2024-02-09T09:00:44.748Z,80.80
2024-02-09T09:01:41.008Z,80.80
2024-02-09T09:02:40.831Z,81.04
2024-02-09T09:03:41.286Z,81.13
2024-02-09T09:04:41.044Z,81.34
2024-02-09T09:05:40.799Z,81.24
2024-02-09T09:06:40.893Z,81.13
2024-02-09T09:07:40.860Z,80.90
2024-02-09T09:08:40.793Z,80.94
2024-02-09T09:09:40.770Z,81.13
2024-02-09T09:10:40.785Z,81.13
2024-02-09T09:11:40.940Z,81.04
2024-02-09T09:12:40.620Z,81.00
2024-02-09T09:13:40.900Z,80.90
2024-02-09T09:14:40.715Z,80.90
2024-02-09T09:15:40.714Z,80.90
2024-02-09T09:16:40.875Z,80.80
2024-02-09T09:17:40.856Z,80.80
2024-02-09T09:18:40.895Z,80.70
2024-02-09T09:19:40.845Z,80.80
2024-02-09T09:20:40.728Z,80.70
2024-02-09T09:21:40.764Z,80.80
2024-02-09T09:22:40.749Z,80.80
2024-02-09T09:23:40.582Z,80.70
2024-02-09T09:24:41.154Z,80.60
2024-02-09T09:25:41.296Z,80.70
2024-02-09T09:26:40.695Z,81.00
2024-02-09T09:27:40.633Z,81.10
2024-02-09T09:28:40.618Z,81.20
2024-02-09T09:29:40.632Z,81.20
2024-02-09T09:30:40.544Z,81.10
2024-02-09T09:31:40.681Z,81.20
2024-02-09T09:32:40.529Z,81.20
2024-02-09T09:33:40.489Z,81.00
2024-02-09T09:34:40.495Z,80.90
2024-02-09T09:35:40.494Z,80.80
2024-02-09T09:36:40.514Z,80.60
2024-02-09T09:37:40.568Z,80.60
2024-02-09T09:38:40.435Z,80.60
2024-02-09T09:39:40.468Z,80.40
2024-02-09T09:40:40.505Z,80.60
2024-02-09T09:41:40.510Z,80.70
2024-02-09T09:42:40.352Z,80.70
2024-02-09T09:43:40.545Z,80.80
2024-02-09T09:44:40.322Z,80.90
2024-02-09T09:45:40.431Z,80.90
2024-02-09T09:46:40.407Z,80.80
2024-02-09T09:47:40.311Z,80.60
2024-02-09T09:48:40.517Z,80.50
2024-02-09T09:49:40.287Z,80.40
2024-02-09T09:50:40.261Z,80.40
2024-02-09T09:51:40.264Z,80.30
2024-02-09T09:52:40.304Z,80.40
2024-02-09T09:53:40.276Z,80.26
2024-02-09T09:54:40.330Z,79.96
2024-02-09T09:55:40.273Z,79.80
2024-02-09T09:56:40.197Z,79.90
2024-02-09T09:57:40.200Z,80.00
2024-02-09T09:58:40.266Z,80.00
2024-02-09T09:59:40.169Z,80.00
2024-02-09T10:00:40.197Z,79.90
2024-02-09T10:01:40.226Z,80.10
2024-02-09T10:02:40.172Z,80.30
2024-02-09T10:03:40.329Z,80.30
2024-02-09T10:04:40.364Z,80.30
2024-02-09T10:05:40.398Z,80.20
2024-02-09T10:06:40.226Z,79.96
2024-02-09T10:07:40.284Z,79.86
2024-02-09T10:08:40.257Z,79.57
2024-02-09T10:09:40.030Z,79.66
2024-02-09T10:10:40.099Z,79.57
2024-02-09T10:11:40.376Z,79.57
2024-02-09T10:12:40.205Z,79.76
2024-02-09T10:13:40.030Z,79.76
2024-02-09T10:14:40.947Z,79.46
2024-02-09T10:15:40.155Z,79.36
2024-02-09T10:16:40.959Z,79.46
2024-02-09T10:17:40.167Z,79.57
2024-02-09T10:18:40.260Z,79.46
2024-02-09T10:19:40.152Z,79.57
2024-02-09T10:20:40.513Z,79.66
2024-02-09T10:21:44.270Z,79.46
2024-02-09T10:22:39.933Z,79.46
2024-02-09T10:23:40.540Z,79.57
2024-02-09T10:24:40.280Z,79.46
2024-02-09T10:25:39.930Z,79.33
2024-02-09T10:26:40.342Z,79.03
2024-02-09T10:27:39.948Z,78.43
2024-02-09T10:28:40.043Z,78.92
2024-02-09T10:29:40.019Z,78.92
2024-02-09T10:30:40.240Z,78.92
2024-02-09T10:31:40.044Z,78.92
2024-02-09T10:32:40.435Z,78.92
2024-02-09T10:33:40.107Z,79.03
2024-02-09T10:34:40.494Z,79.13
2024-02-09T10:35:41.558Z,78.92
2024-02-09T10:36:40.033Z,78.92
2024-02-09T10:37:40.274Z,78.92
2024-02-09T10:38:41.347Z,78.39
2024-02-09T10:39:40.015Z,78.29
2024-02-09T10:40:39.861Z,78.59
2024-02-09T10:41:39.744Z,78.49
2024-02-09T10:42:39.851Z,78.09
2024-02-09T10:43:39.748Z,77.99
2024-02-09T10:44:40.482Z,77.80
2024-02-09T10:45:39.667Z,77.69
2024-02-09T10:46:39.909Z,77.69
2024-02-09T10:47:40.637Z,77.36
2024-02-09T10:48:40.043Z,77.06
2024-02-09T10:49:39.848Z,76.86
2024-02-09T10:50:39.790Z,76.46
2024-02-09T10:51:39.797Z,76.23
2024-02-09T10:52:40.153Z,76.32
2024-02-09T10:53:39.852Z,75.73
2024-02-09T10:54:39.651Z,75.53
2024-02-09T10:55:40.241Z,75.40
2024-02-09T10:56:39.938Z,75.10
2024-02-09T10:57:39.625Z,75.40
2024-02-09T10:58:39.903Z,75.20
2024-02-09T10:59:39.651Z,75.10
2024-02-09T11:00:39.697Z,75.20
2024-02-09T11:01:39.665Z,74.90
2024-02-09T11:02:39.811Z,75.36
2024-02-09T11:03:39.627Z,74.96
2024-02-09T11:04:39.571Z,74.86
2024-02-09T11:05:39.820Z,75.12
2024-02-09T11:06:39.712Z,74.33
2024-02-09T11:07:39.584Z,73.33
2024-02-09T11:08:44.471Z,73.14
2024-02-09T11:09:39.404Z,73.73
2024-02-09T11:10:40.582Z,73.33
2024-02-09T11:11:39.514Z,73.33
2024-02-09T11:12:39.482Z,74.13
2024-02-09T11:13:40.659Z,73.03
2024-02-09T11:14:39.485Z,73.69
2024-02-09T11:15:39.547Z,73.30
2024-02-09T11:16:39.628Z,73.00
2024-02-09T11:17:39.407Z,72.71
2024-02-09T11:18:39.690Z,72.31
2024-02-09T11:19:39.556Z,72.11
2024-02-09T11:20:40.453Z,72.50
2024-02-09T11:21:42.546Z,72.20
2024-02-09T11:22:39.659Z,72.11
2024-02-09T11:23:40.445Z,72.50
2024-02-09T11:24:39.391Z,71.78
2024-02-09T11:25:39.797Z,71.37
2024-02-09T11:26:39.579Z,72.17
2024-02-09T11:27:44.020Z,71.94
2024-02-09T11:28:39.513Z,71.34
2024-02-09T11:29:40.101Z,70.25
2024-02-09T11:30:39.364Z,69.92
2024-02-09T11:31:39.391Z,69.62
2024-02-09T11:32:39.277Z,69.62
2024-02-09T11:33:40.304Z,69.92
2024-02-09T11:34:39.463Z,69.69
2024-02-09T11:35:39.195Z,69.09
2024-02-09T11:36:39.222Z,68.60
2024-02-09T11:37:39.247Z,68.37
2024-02-09T11:38:39.343Z,68.17
2024-02-09T11:39:39.144Z,68.57
2024-02-09T11:40:39.492Z,68.07
2024-02-09T11:41:39.463Z,68.37
2024-02-09T11:42:39.369Z,68.46
2024-02-09T11:43:39.243Z,68.04
2024-02-09T11:44:39.573Z,67.74
2024-02-09T11:45:40.208Z,67.44
2024-02-09T11:46:39.659Z,67.94
2024-02-09T11:47:39.643Z,68.63
2024-02-09T11:48:39.516Z,69.23
2024-02-09T11:49:40.059Z,70.02
2024-02-09T11:50:39.238Z,69.53
2024-02-09T11:51:39.141Z,69.23
2024-02-09T11:52:49.375Z,68.24
2024-02-09T11:53:39.133Z,67.51
2024-02-09T11:54:39.050Z,67.51
2024-02-09T11:55:39.280Z,67.02
2024-02-09T11:56:39.263Z,66.52
2024-02-09T11:57:39.064Z,67.02
2024-02-09T11:58:39.849Z,68.40
2024-02-09T11:59:38.955Z,67.28
2024-02-09T12:00:39.811Z,66.58
2024-02-09T12:01:39.023Z,65.59
2024-02-09T12:02:39.079Z,65.89
2024-02-09T12:03:39.066Z,65.70
2024-02-09T12:04:39.355Z,65.40
2024-02-09T12:05:40.873Z,65.50
2024-02-09T12:06:39.874Z,65.96
2024-02-09T12:07:39.083Z,65.17
2024-02-09T12:08:39.557Z,65.17
2024-02-09T12:09:52.041Z,65.04
2024-02-09T12:10:39.569Z,64.74
2024-02-09T12:11:38.755Z,64.45
2024-02-09T12:12:38.836Z,64.94
2024-02-09T12:13:38.913Z,65.30
2024-02-09T12:14:38.864Z,64.22
2024-02-09T12:15:39.072Z,63.36
2024-02-09T12:16:39.029Z,62.47
2024-02-09T12:17:38.813Z,63.16
2024-02-09T12:18:38.807Z,62.47
2024-02-09T12:19:38.799Z,62.87
2024-02-09T12:20:38.873Z,63.98
2024-02-09T12:21:38.870Z,64.54
2024-02-09T12:22:38.841Z,64.45
2024-02-09T12:23:38.615Z,63.56
2024-02-09T12:24:38.621Z,63.16
2024-02-09T12:25:39.843Z,63.13
2024-02-09T12:26:38.650Z,63.03
2024-02-09T12:27:38.813Z,63.13
2024-02-09T12:28:39.332Z,62.24
2024-02-09T12:29:38.757Z,63.23
2024-02-09T12:30:38.650Z,63.92
2024-02-09T12:31:39.193Z,62.60
2024-02-09T12:32:40.006Z,62.21
2024-02-09T12:33:38.937Z,62.12
2024-02-09T12:34:38.718Z,61.91
2024-02-09T12:35:38.688Z,61.19
2024-02-09T12:36:38.865Z,60.73
2024-02-09T12:37:40.269Z,60.83
2024-02-09T12:38:39.244Z,60.83
2024-02-09T12:39:53.561Z,60.63
2024-02-09T12:40:38.451Z,61.22
2024-02-09T12:41:38.604Z,61.42
2024-02-09T12:42:38.637Z,61.59
2024-02-09T12:43:38.777Z,60.60
2024-02-09T12:44:38.659Z,60.50
2024-02-09T12:45:39.378Z,60.50
2024-02-09T12:46:38.802Z,61.19
2024-02-09T12:47:38.477Z,60.80
2024-02-09T12:48:38.750Z,60.77
2024-02-09T12:49:45.498Z,60.18
2024-02-09T12:50:39.279Z,59.48
2024-02-09T12:51:39.006Z,59.95
2024-02-09T12:52:38.430Z,59.26
2024-02-09T12:53:39.229Z,59.16
2024-02-09T12:54:40.148Z,59.26
2024-02-09T12:55:38.558Z,59.26